createdAt,value
2024-05-09T00:00:18.211Z,21.90
2024-05-09T00:01:13.067Z,21.97
2024-05-09T00:02:12.142Z,21.95
2024-05-09T00:03:12.517Z,22.06
2024-05-09T00:04:12.070Z,22.02
2024-05-09T00:05:12.128Z,21.94
2024-05-09T00:06:12.046Z,21.81
2024-05-09T00:07:11.984Z,21.83
2024-05-09T00:08:12.580Z,21.92
2024-05-09T00:09:11.955Z,21.78
2024-05-09T00:10:22.056Z,21.83
2024-05-09T00:11:13.005Z,21.94
2024-05-09T00:12:11.976Z,21.83
2024-05-09T00:13:11.932Z,21.59
2024-05-09T00:14:11.956Z,21.53
2024-05-09T00:15:11.886Z,21.64
2024-05-09T00:16:11.881Z,21.75
2024-05-09T00:17:12.024Z,21.75
2024-05-09T00:18:12.057Z,21.30
2024-05-09T00:19:11.903Z,21.23
2024-05-09T00:20:17.894Z,21.13
2024-05-09T00:21:12.908Z,20.95
2024-05-09T00:22:11.812Z,21.19
2024-05-09T00:23:13.003Z,21.05
2024-05-09T00:24:11.772Z,20.79
2024-05-09T00:25:11.774Z,20.79
2024-05-09T00:26:11.836Z,20.86
2024-05-09T00:27:13.331Z,20.71
2024-05-09T00:28:11.776Z,20.39
2024-05-09T00:29:11.809Z,20.20
2024-05-09T00:30:17.771Z,20.30
2024-05-09T00:31:12.697Z,20.28
2024-05-09T00:32:11.754Z,20.41
2024-05-09T00:33:12.059Z,20.31
2024-05-09T00:34:11.672Z,20.30
2024-05-09T00:35:11.700Z,20.24
2024-05-09T00:36:11.670Z,20.23
2024-05-09T00:37:11.659Z,20.25
2024-05-09T00:38:11.661Z,20.28
2024-05-09T00:39:11.605Z,20.51
2024-05-09T00:40:18.345Z,20.66
2024-05-09T00:41:13.119Z,20.71
2024-05-09T00:42:11.536Z,20.83
2024-05-09T00:43:12.500Z,20.76
2024-05-09T00:44:11.576Z,20.64
2024-05-09T00:45:11.487Z,20.81
2024-05-09T00:46:11.489Z,20.99
2024-05-09T00:47:11.725Z,21.01
2024-05-09T00:48:13.928Z,20.90
2024-05-09T00:49:11.565Z,20.87
2024-05-09T00:50:16.017Z,21.13
2024-05-09T00:51:12.550Z,21.41
2024-05-09T00:52:11.421Z,21.54
2024-05-09T00:53:11.869Z,21.14
2024-05-09T00:54:11.362Z,20.99
2024-05-09T00:55:11.406Z,20.49
2024-05-09T00:56:11.373Z,20.54
2024-05-09T00:57:11.374Z,20.33
2024-05-09T00:58:11.342Z,20.21
2024-05-09T00:59:11.431Z,20.56
2024-05-09T01:00:22.399Z,20.79
2024-05-09T01:01:12.277Z,20.74
2024-05-09T01:02:11.324Z,20.61
2024-05-09T01:03:13.372Z,20.80
2024-05-09T01:04:11.629Z,20.80
2024-05-09T01:05:11.373Z,21.01
2024-05-09T01:06:11.203Z,21.38
2024-05-09T01:07:11.183Z,21.32
2024-05-09T01:08:11.513Z,21.24
2024-05-09T01:09:11.155Z,21.36
2024-05-09T01:10:17.058Z,21.59
2024-05-09T01:11:12.320Z,21.57
2024-05-09T01:12:11.551Z,21.57
2024-05-09T01:13:11.200Z,21.41
2024-05-09T01:14:11.222Z,21.32
2024-05-09T01:15:11.098Z,21.20
2024-05-09T01:16:11.195Z,20.50
2024-05-09T01:17:11.205Z,20.08
2024-05-09T01:18:12.417Z,20.09
2024-05-09T01:19:11.367Z,20.42
2024-05-09T01:20:19.620Z,20.50
2024-05-09T01:21:12.119Z,20.56
2024-05-09T01:22:10.992Z,20.62
2024-05-09T01:23:11.742Z,20.74
2024-05-09T01:24:10.975Z,20.79
2024-05-09T01:25:10.955Z,20.28
2024-05-09T01:26:10.970Z,19.51
2024-05-09T01:27:10.956Z,19.08
2024-05-09T01:28:10.923Z,18.95
2024-05-09T01:29:10.927Z,19.24
2024-05-09T01:30:17.182Z,19.23
2024-05-09T01:31:11.879Z,19.29
2024-05-09T01:32:11.060Z,19.17
2024-05-09T01:33:12.315Z,19.39
2024-05-09T01:34:10.866Z,19.61
2024-05-09T01:35:10.843Z,19.79
2024-05-09T01:36:10.839Z,20.13
2024-05-09T01:37:10.787Z,20.47
2024-05-09T01:38:10.801Z,20.59
2024-05-09T01:39:10.794Z,20.54
2024-05-09T01:40:15.035Z,20.58
2024-05-09T01:41:11.811Z,20.72
2024-05-09T01:42:10.728Z,20.86
2024-05-09T01:43:11.828Z,20.84
2024-05-09T01:44:10.763Z,20.87
2024-05-09T01:45:10.685Z,20.93
2024-05-09T01:46:10.678Z,21.02
2024-05-09T01:47:10.840Z,20.66
2024-05-09T01:48:11.542Z,20.69
2024-05-09T01:49:10.697Z,20.35
2024-05-09T01:50:11.102Z,19.84
2024-05-09T01:51:10.823Z,19.75
2024-05-09T01:52:10.618Z,19.63
2024-05-09T01:53:10.805Z,19.32
2024-05-09T01:54:10.565Z,19.17
2024-05-09T01:55:10.580Z,19.20
2024-05-09T01:56:10.571Z,18.84
2024-05-09T01:57:10.544Z,18.82
2024-05-09T01:58:10.537Z,18.72
2024-05-09T01:59:10.628Z,18.74
2024-05-09T02:00:10.621Z,18.73
2024-05-09T02:01:10.515Z,18.74
2024-05-09T02:02:10.759Z,18.72
2024-05-09T02:03:12.452Z,18.87
2024-05-09T02:04:10.616Z,18.98
2024-05-09T02:05:10.682Z,19.02
2024-05-09T02:06:10.548Z,18.84
2024-05-09T02:07:10.414Z,18.95
2024-05-09T02:08:10.389Z,19.17
2024-05-09T02:09:10.361Z,19.08
2024-05-09T02:10:16.450Z,18.74
2024-05-09T02:11:11.484Z,18.79
2024-05-09T02:12:10.531Z,18.83
2024-05-09T02:13:10.366Z,18.79
2024-05-09T02:14:10.467Z,18.86
2024-05-09T02:15:10.274Z,18.79
2024-05-09T02:16:10.267Z,18.91
2024-05-09T02:17:10.312Z,18.90
2024-05-09T02:18:11.383Z,19.05
2024-05-09T02:19:10.506Z,19.39
2024-05-09T02:20:16.109Z,19.31
2024-05-09T02:21:11.296Z,19.42
2024-05-09T02:22:10.191Z,19.58
2024-05-09T02:23:10.346Z,19.70
2024-05-09T02:24:10.178Z,19.79
2024-05-09T02:25:10.172Z,19.90
2024-05-09T02:26:10.206Z,19.95
2024-05-09T02:27:10.143Z,20.06
2024-05-09T02:28:10.110Z,20.15
2024-05-09T02:29:10.149Z,20.13
2024-05-09T02:30:18.623Z,20.12
2024-05-09T02:31:11.100Z,20.16
2024-05-09T02:32:10.166Z,20.12
2024-05-09T02:33:12.159Z,20.12
2024-05-09T02:34:10.149Z,20.00
2024-05-09T02:35:10.147Z,19.95
2024-05-09T02:36:10.018Z,20.08
2024-05-09T02:37:09.983Z,20.02
2024-05-09T02:38:10.450Z,20.16
2024-05-09T02:39:09.946Z,20.16
2024-05-09T02:40:14.588Z,20.15
2024-05-09T02:41:11.027Z,20.16
2024-05-09T02:42:09.918Z,20.05
2024-05-09T02:43:11.123Z,19.80
2024-05-09T02:44:09.930Z,19.73
2024-05-09T02:45:09.877Z,19.79
2024-05-09T02:46:09.870Z,19.93
2024-05-09T02:47:10.046Z,19.98
2024-05-09T02:48:10.064Z,19.97
2024-05-09T02:49:09.970Z,19.98
2024-05-09T02:50:13.291Z,20.27
2024-05-09T02:51:10.998Z,20.43
2024-05-09T02:52:09.808Z,20.68
2024-05-09T02:53:10.238Z,20.84
2024-05-09T02:54:09.779Z,20.77
2024-05-09T02:55:09.745Z,20.74
2024-05-09T02:56:09.819Z,20.72
2024-05-09T02:57:09.716Z,20.84
2024-05-09T02:58:10.097Z,20.99
2024-05-09T02:59:09.695Z,20.95
2024-05-09T03:00:15.244Z,20.74
2024-05-09T03:01:10.694Z,20.53
2024-05-09T03:02:09.760Z,20.41
2024-05-09T03:03:11.670Z,20.34
2024-05-09T03:04:09.727Z,20.30
2024-05-09T03:05:09.666Z,20.21
2024-05-09T03:06:09.625Z,20.21
2024-05-09T03:07:09.584Z,20.23
2024-05-09T03:08:09.824Z,20.21
2024-05-09T03:09:09.587Z,20.13
2024-05-09T03:10:14.979Z,20.13
2024-05-09T03:11:10.663Z,20.24
2024-05-09T03:12:09.604Z,20.38
2024-05-09T03:13:09.509Z,20.51
2024-05-09T03:14:09.536Z,20.56
2024-05-09T03:15:09.487Z,20.51
2024-05-09T03:16:09.468Z,20.47
2024-05-09T03:17:09.543Z,20.46
2024-05-09T03:18:09.875Z,20.42
2024-05-09T03:19:09.564Z,20.39
2024-05-09T03:20:17.401Z,20.31
2024-05-09T03:21:10.579Z,19.90
2024-05-09T03:22:09.382Z,19.73
2024-05-09T03:23:10.314Z,19.43
2024-05-09T03:24:09.396Z,19.36
2024-05-09T03:25:09.354Z,19.50
2024-05-09T03:26:09.408Z,19.57
2024-05-09T03:27:09.319Z,19.43
2024-05-09T03:28:09.358Z,19.50
2024-05-09T03:29:09.385Z,19.50
2024-05-09T03:30:10.009Z,19.54
2024-05-09T03:31:09.277Z,19.76
2024-05-09T03:32:09.308Z,19.91
2024-05-09T03:33:09.689Z,19.84
2024-05-09T03:34:09.252Z,19.98
2024-05-09T03:35:09.343Z,19.87
2024-05-09T03:36:11.182Z,19.79
2024-05-09T03:37:09.183Z,19.66
2024-05-09T03:38:09.451Z,19.65
2024-05-09T03:39:09.174Z,19.66
2024-05-09T03:40:14.449Z,19.60
2024-05-09T03:41:10.191Z,19.61
2024-05-09T03:42:09.116Z,19.60
2024-05-09T03:43:09.108Z,19.65
2024-05-09T03:44:09.143Z,19.68
2024-05-09T03:45:09.091Z,19.72
2024-05-09T03:46:09.097Z,19.68
2024-05-09T03:47:09.084Z,19.68
2024-05-09T03:48:09.322Z,19.69
2024-05-09T03:49:09.239Z,19.69
2024-05-09T03:50:15.194Z,19.63
2024-05-09T03:51:10.081Z,19.55
2024-05-09T03:52:08.988Z,19.53
2024-05-09T03:53:08.996Z,19.48
2024-05-09T03:54:08.981Z,19.47
2024-05-09T03:55:08.950Z,19.55
2024-05-09T03:56:08.991Z,19.57
2024-05-09T03:57:08.965Z,19.48
2024-05-09T03:58:08.912Z,19.40
2024-05-09T03:59:08.915Z,19.20
2024-05-09T04:00:17.749Z,18.87
2024-05-09T04:01:09.885Z,18.80
2024-05-09T04:02:09.003Z,18.86
2024-05-09T04:03:11.338Z,18.91
2024-05-09T04:04:09.084Z,18.95
2024-05-09T04:05:08.845Z,19.02
2024-05-09T04:06:08.848Z,19.06
2024-05-09T04:07:08.809Z,18.83
2024-05-09T04:08:09.015Z,18.62
2024-05-09T04:09:08.784Z,18.67
2024-05-09T04:10:13.873Z,18.50
2024-05-09T04:11:09.896Z,18.59
2024-05-09T04:12:08.825Z,18.77
2024-05-09T04:13:08.709Z,18.98
2024-05-09T04:14:08.770Z,19.05
2024-05-09T04:15:12.143Z,18.99
2024-05-09T04:16:08.733Z,18.99
2024-05-09T04:17:08.696Z,18.76
2024-05-09T04:18:08.811Z,18.82
2024-05-09T04:19:08.702Z,18.83
2024-05-09T04:20:12.394Z,18.84
2024-05-09T04:21:09.800Z,19.05
2024-05-09T04:22:08.599Z,19.21
2024-05-09T04:23:09.432Z,19.20
2024-05-09T04:24:08.571Z,19.15
2024-05-09T04:25:08.548Z,19.31
2024-05-09T04:26:08.560Z,19.48
2024-05-09T04:27:08.554Z,19.58
2024-05-09T04:28:08.508Z,19.78
2024-05-09T04:29:08.548Z,19.86
2024-05-09T04:30:15.288Z,20.02
2024-05-09T04:31:09.494Z,20.39
2024-05-09T04:32:08.656Z,20.69
2024-05-09T04:33:10.880Z,21.19
2024-05-09T04:34:08.596Z,21.53
2024-05-09T04:35:08.475Z,21.90
2024-05-09T04:36:08.410Z,22.31
2024-05-09T04:37:08.390Z,22.56
2024-05-09T04:38:08.424Z,22.92
2024-05-09T04:39:08.371Z,23.26
2024-05-09T04:40:14.067Z,23.45
2024-05-09T04:41:09.370Z,23.55
2024-05-09T04:42:08.310Z,23.75
2024-05-09T04:43:08.301Z,23.92
2024-05-09T04:44:08.336Z,23.95
2024-05-09T04:45:08.320Z,23.75
2024-05-09T04:46:08.280Z,23.60
2024-05-09T04:47:08.335Z,23.60
2024-05-09T04:48:08.595Z,23.82
2024-05-09T04:49:08.385Z,24.12
2024-05-09T04:50:11.571Z,24.44
2024-05-09T04:51:09.264Z,24.75
2024-05-09T04:52:08.191Z,25.00
2024-05-09T04:53:09.904Z,25.28
2024-05-09T04:54:10.735Z,25.59
2024-05-09T04:55:08.161Z,25.94
2024-05-09T04:56:08.195Z,26.09
2024-05-09T04:57:08.162Z,26.21
2024-05-09T04:58:08.113Z,26.29
2024-05-09T04:59:08.132Z,26.20
2024-05-09T05:00:14.566Z,26.29
2024-05-09T05:01:09.088Z,25.94
2024-05-09T05:02:08.126Z,24.73
2024-05-09T05:03:09.353Z,23.67
2024-05-09T05:04:08.082Z,22.72
2024-05-09T05:05:08.134Z,21.90
2024-05-09T05:06:08.020Z,21.30
2024-05-09T05:07:07.984Z,21.11
2024-05-09T05:08:08.034Z,20.96
2024-05-09T05:09:07.969Z,20.90
2024-05-09T05:10:11.853Z,20.61
2024-05-09T05:11:09.018Z,20.68
2024-05-09T05:12:08.124Z,20.96
2024-05-09T05:13:07.911Z,20.72
2024-05-09T05:14:07.949Z,20.83
2024-05-09T05:15:07.910Z,20.90
2024-05-09T05:16:07.886Z,20.83
2024-05-09T05:17:07.951Z,20.91
2024-05-09T05:18:08.031Z,21.36
2024-05-09T05:19:11.471Z,21.90
2024-05-09T05:20:08.764Z,22.23
2024-05-09T05:21:07.859Z,22.60
2024-05-09T05:22:07.802Z,23.32
2024-05-09T05:23:07.806Z,23.94
2024-05-09T05:24:07.754Z,23.42
2024-05-09T05:25:08.398Z,24.04
2024-05-09T05:26:07.751Z,24.10
2024-05-09T05:27:07.753Z,23.98
2024-05-09T05:28:07.732Z,24.82
2024-05-09T05:29:07.798Z,25.57
2024-05-09T05:30:14.643Z,25.28
2024-05-09T05:31:08.680Z,24.63
2024-05-09T05:32:07.810Z,24.04
2024-05-09T05:33:07.788Z,24.01
2024-05-09T05:34:07.724Z,24.16
2024-05-09T05:35:07.675Z,24.12
2024-05-09T05:36:07.620Z,24.04
2024-05-09T05:37:07.642Z,23.67
2024-05-09T05:38:07.644Z,23.61
2024-05-09T05:39:07.597Z,23.87
2024-05-09T05:40:11.878Z,24.31
2024-05-09T05:41:08.664Z,24.87
2024-05-09T05:42:07.525Z,25.13
2024-05-09T05:43:07.522Z,25.57
2024-05-09T05:44:07.530Z,26.01
2024-05-09T05:45:09.657Z,26.47
2024-05-09T05:46:07.482Z,26.79
2024-05-09T05:47:07.529Z,26.80
2024-05-09T05:48:08.063Z,26.98
2024-05-09T05:49:07.490Z,26.98
2024-05-09T05:50:17.813Z,27.36
2024-05-09T05:51:08.508Z,27.13
2024-05-09T05:52:07.415Z,26.95
2024-05-09T05:53:08.416Z,27.39
2024-05-09T05:54:07.400Z,27.54
2024-05-09T05:55:07.384Z,27.42
2024-05-09T05:56:07.385Z,27.42
2024-05-09T05:57:07.406Z,27.39
2024-05-09T05:58:07.324Z,27.77
2024-05-09T05:59:07.443Z,27.82
2024-05-09T06:00:09.673Z,27.46
2024-05-09T06:01:07.356Z,27.36
2024-05-09T06:02:07.404Z,27.39
2024-05-09T06:03:07.773Z,27.59
2024-05-09T06:04:07.501Z,27.91
2024-05-09T06:05:07.336Z,27.77
2024-05-09T06:06:07.284Z,27.62
2024-05-09T06:07:07.243Z,27.70
2024-05-09T06:08:07.317Z,27.79
2024-05-09T06:09:07.227Z,27.84
2024-05-09T06:10:11.611Z,27.92
2024-05-09T06:11:08.261Z,27.79
2024-05-09T06:12:07.321Z,27.77
2024-05-09T06:13:07.193Z,27.47
2024-05-09T06:14:07.182Z,27.50
2024-05-09T06:15:07.131Z,27.51
2024-05-09T06:16:07.094Z,27.64
2024-05-09T06:17:07.159Z,27.39
2024-05-09T06:18:07.244Z,27.33
2024-05-09T06:19:07.148Z,27.21
2024-05-09T06:20:13.453Z,27.36
2024-05-09T06:21:08.182Z,27.82
2024-05-09T06:22:07.046Z,27.91
2024-05-09T06:23:07.240Z,28.22
2024-05-09T06:24:07.036Z,28.31
2024-05-09T06:25:06.991Z,28.22
2024-05-09T06:26:07.055Z,28.33
2024-05-09T06:27:07.002Z,27.85
2024-05-09T06:28:07.021Z,27.20
2024-05-09T06:29:07.036Z,27.04
2024-05-09T06:30:09.937Z,27.28
2024-05-09T06:31:07.947Z,27.28
2024-05-09T06:32:07.050Z,27.29
2024-05-09T06:33:07.317Z,27.53
2024-05-09T06:34:07.034Z,27.76
2024-05-09T06:35:06.935Z,28.16
2024-05-09T06:36:06.900Z,28.62
2024-05-09T06:37:06.948Z,28.80
2024-05-09T06:38:06.911Z,28.46
2024-05-09T06:39:06.815Z,28.65
2024-05-09T06:40:07.640Z,28.78
2024-05-09T06:41:06.899Z,28.96
2024-05-09T06:42:06.784Z,29.45
2024-05-09T06:43:06.803Z,30.11
2024-05-09T06:44:06.803Z,30.29
2024-05-09T06:45:06.756Z,29.72
2024-05-09T06:46:06.775Z,29.16
2024-05-09T06:47:06.782Z,29.29
2024-05-09T06:48:07.012Z,29.53
2024-05-09T06:49:06.789Z,29.33
2024-05-09T06:50:13.100Z,28.40
2024-05-09T06:51:07.816Z,26.79
2024-05-09T06:52:06.655Z,25.20
2024-05-09T06:53:06.853Z,24.19
2024-05-09T06:54:06.666Z,23.32
2024-05-09T06:55:06.629Z,22.83
2024-05-09T06:56:06.658Z,22.74
2024-05-09T06:57:06.652Z,22.44
2024-05-09T06:58:06.958Z,22.25
2024-05-09T06:59:06.683Z,22.34
2024-05-09T07:00:08.277Z,22.23
2024-05-09T07:01:07.581Z,22.25
2024-05-09T07:02:06.657Z,22.20
2024-05-09T07:03:06.701Z,22.31
2024-05-09T07:04:06.633Z,22.46
2024-05-09T07:05:06.664Z,22.34
2024-05-09T07:06:06.614Z,22.04
2024-05-09T07:07:06.521Z,22.12
2024-05-09T07:08:06.515Z,22.47
2024-05-09T07:09:06.496Z,22.60
2024-05-09T07:10:09.949Z,22.17
2024-05-09T07:11:07.480Z,22.13
2024-05-09T07:12:06.580Z,22.39
2024-05-09T07:13:06.379Z,22.65
2024-05-09T07:14:06.438Z,22.99
2024-05-09T07:15:06.371Z,23.11
2024-05-09T07:16:06.332Z,23.27
2024-05-09T07:17:06.612Z,23.45
2024-05-09T07:18:06.665Z,23.29
2024-05-09T07:19:06.628Z,23.42
2024-05-09T07:20:08.998Z,23.31
2024-05-09T07:21:06.336Z,23.22
2024-05-09T07:22:06.250Z,23.17
2024-05-09T07:23:06.343Z,22.75
2024-05-09T07:24:06.237Z,22.78
2024-05-09T07:25:06.211Z,23.07
2024-05-09T07:26:06.250Z,23.82
2024-05-09T07:27:06.361Z,24.37
2024-05-09T07:28:06.237Z,24.67
2024-05-09T07:29:06.207Z,25.25
2024-05-09T07:30:07.337Z,24.79
2024-05-09T07:31:06.160Z,24.12
2024-05-09T07:32:06.208Z,24.12
2024-05-09T07:33:06.405Z,24.79
2024-05-09T07:34:06.193Z,25.17
2024-05-09T07:35:06.134Z,25.44
2024-05-09T07:36:06.094Z,25.20
2024-05-09T07:37:06.099Z,25.15
2024-05-09T07:38:06.108Z,24.98
2024-05-09T07:39:06.048Z,25.07
2024-05-09T07:40:07.643Z,25.24
2024-05-09T07:41:06.188Z,25.02
2024-05-09T07:42:05.984Z,25.06
2024-05-09T07:43:05.974Z,25.28
2024-05-09T07:44:06.064Z,24.13
2024-05-09T07:45:21.579Z,24.04
2024-05-09T07:47:10.065Z,23.79
2024-05-09T07:48:14.524Z,24.00
2024-05-09T07:52:22.572Z,24.69
2024-05-09T07:53:36.360Z,22.54
2024-05-09T07:54:07.472Z,22.23
2024-05-09T07:55:05.992Z,22.10
2024-05-09T07:56:06.172Z,22.43
2024-05-09T07:57:05.963Z,22.62
2024-05-09T07:58:05.821Z,23.22
2024-05-09T07:59:05.799Z,23.53
2024-05-09T08:00:06.693Z,23.45
2024-05-09T08:01:06.940Z,23.47
2024-05-09T08:02:06.153Z,23.58
2024-05-09T08:03:05.799Z,23.34
2024-05-09T08:04:05.898Z,23.15
2024-05-09T08:05:05.924Z,23.15
2024-05-09T08:06:05.668Z,23.50
2024-05-09T08:07:05.672Z,24.27
2024-05-09T08:08:05.646Z,23.64
2024-05-09T08:09:10.809Z,23.39
2024-05-09T08:10:10.552Z,23.05
2024-05-09T08:11:05.677Z,22.96
2024-05-09T08:12:05.592Z,22.69
2024-05-09T08:13:05.699Z,22.90
2024-05-09T08:14:05.596Z,23.11
2024-05-09T08:15:05.576Z,22.90
2024-05-09T08:16:05.660Z,23.29
2024-05-09T08:17:05.578Z,23.39
2024-05-09T08:18:05.630Z,23.40
2024-05-09T08:19:05.574Z,23.14
2024-05-09T08:20:05.747Z,23.40
2024-05-09T08:21:05.508Z,23.32
2024-05-09T08:22:05.508Z,22.84
2024-05-09T08:23:05.466Z,22.80
2024-05-09T08:24:05.438Z,22.87
2024-05-09T08:25:05.513Z,22.93
2024-05-09T08:26:05.385Z,23.04
2024-05-09T08:27:05.408Z,22.83
2024-05-09T08:28:05.516Z,22.92
2024-05-09T08:29:05.372Z,23.04
2024-05-09T08:30:07.958Z,23.65
2024-05-09T08:31:07.021Z,23.85
2024-05-09T08:32:05.353Z,23.61
2024-05-09T08:33:06.469Z,23.26
2024-05-09T08:34:05.526Z,23.23
2024-05-09T08:35:05.322Z,23.45
2024-05-09T08:36:05.376Z,23.31
2024-05-09T08:37:12.990Z,23.65
2024-05-09T08:38:06.518Z,23.68
2024-05-09T08:39:05.195Z,23.89
2024-05-09T08:40:06.598Z,24.05
2024-05-09T08:41:05.177Z,24.24
2024-05-09T08:42:05.224Z,24.07
2024-05-09T08:43:05.244Z,23.71
2024-05-09T08:44:05.178Z,23.47
2024-05-09T08:45:05.132Z,23.34
2024-05-09T08:46:05.183Z,23.60
2024-05-09T08:47:05.142Z,23.52
2024-05-09T08:48:05.178Z,24.00
2024-05-09T08:49:05.391Z,24.71
2024-05-09T08:50:05.348Z,25.10
2024-05-09T08:51:05.093Z,25.12
2024-05-09T08:52:05.066Z,24.97
2024-05-09T08:53:05.129Z,23.61
2024-05-09T08:54:05.034Z,22.94
2024-05-09T08:55:05.073Z,22.57
2024-05-09T08:56:04.996Z,22.64
2024-05-09T08:57:04.994Z,22.96
2024-05-09T08:58:05.018Z,23.43
2024-05-09T08:59:04.924Z,24.01
2024-05-09T09:00:07.905Z,24.10
2024-05-09T09:01:06.039Z,24.23
2024-05-09T09:02:05.094Z,24.64
2024-05-09T09:03:04.904Z,24.39
2024-05-09T09:04:05.012Z,24.38
2024-05-09T09:05:04.985Z,23.94
2024-05-09T09:06:04.838Z,23.71
2024-05-09T09:07:04.900Z,23.75
2024-05-09T09:08:04.815Z,23.79
2024-05-09T09:09:04.811Z,23.79
2024-05-09T09:10:07.034Z,24.05
2024-05-09T09:11:04.757Z,24.61
2024-05-09T09:12:05.771Z,25.31
2024-05-09T09:13:05.424Z,25.15
2024-05-09T09:14:04.725Z,24.69
2024-05-09T09:15:04.711Z,25.01
2024-05-09T09:16:04.772Z,25.27
2024-05-09T09:17:04.703Z,24.98
2024-05-09T09:18:05.252Z,24.77
2024-05-09T09:19:04.869Z,24.12
2024-05-09T09:20:07.075Z,24.17
2024-05-09T09:21:05.657Z,24.17
2024-05-09T09:22:04.645Z,23.87
2024-05-09T09:23:04.926Z,24.04
2024-05-09T09:24:05.351Z,24.02
2024-05-09T09:25:04.872Z,24.10
2024-05-09T09:26:04.550Z,24.26
2024-05-09T09:27:04.539Z,24.05
2024-05-09T09:28:04.569Z,24.16
2024-05-09T09:29:04.508Z,24.32
2024-05-09T09:30:05.614Z,24.73
2024-05-09T09:31:05.061Z,24.71
2024-05-09T09:32:04.478Z,24.44
2024-05-09T09:33:04.714Z,24.75
2024-05-09T09:34:04.562Z,24.53
2024-05-09T09:35:04.583Z,24.32
2024-05-09T09:36:05.834Z,24.22
2024-05-09T09:37:04.514Z,24.08
2024-05-09T09:38:04.603Z,24.22
2024-05-09T09:39:04.464Z,24.83
2024-05-09T09:40:05.669Z,24.17
2024-05-09T09:41:04.751Z,24.32
2024-05-09T09:42:04.376Z,24.52
2024-05-09T09:43:04.373Z,25.13
2024-05-09T09:44:04.345Z,25.22
2024-05-09T09:45:05.700Z,24.88
2024-05-09T09:46:04.497Z,24.54
2024-05-09T09:47:04.355Z,24.44
2024-05-09T09:48:04.397Z,24.44
2024-05-09T09:49:04.349Z,24.29
2024-05-09T09:50:09.393Z,24.13
2024-05-09T09:51:05.267Z,24.24
2024-05-09T09:52:04.256Z,24.17
2024-05-09T09:53:04.192Z,23.77
2024-05-09T09:54:04.203Z,23.86
2024-05-09T09:55:04.250Z,24.27
2024-05-09T09:56:04.172Z,24.77
2024-05-09T09:57:04.181Z,24.77
2024-05-09T09:58:04.215Z,25.07
2024-05-09T09:59:04.154Z,25.20
2024-05-09T10:00:09.410Z,25.07
2024-05-09T10:01:05.225Z,25.00
2024-05-09T10:02:04.406Z,25.13
2024-05-09T10:03:04.265Z,25.35
2024-05-09T10:04:04.213Z,25.67
2024-05-09T10:05:04.214Z,26.29
2024-05-09T10:06:04.035Z,26.39
2024-05-09T10:07:04.025Z,26.24
2024-05-09T10:08:03.999Z,26.12
2024-05-09T10:09:04.010Z,25.64
2024-05-09T10:10:05.111Z,25.27
2024-05-09T10:11:04.291Z,25.25
2024-05-09T10:12:05.271Z,24.98
2024-05-09T10:13:03.998Z,25.28
2024-05-09T10:14:03.942Z,25.53
2024-05-09T10:15:03.920Z,25.20
2024-05-09T10:16:03.954Z,25.39
2024-05-09T10:17:04.202Z,25.57
2024-05-09T10:18:04.233Z,25.49
2024-05-09T10:19:04.142Z,25.65
2024-05-09T10:20:07.218Z,24.85
2024-05-09T10:21:04.853Z,24.35
2024-05-09T10:22:03.881Z,24.83
2024-05-09T10:23:03.811Z,25.35
2024-05-09T10:24:03.785Z,25.34
2024-05-09T10:25:05.051Z,25.37
2024-05-09T10:26:03.853Z,25.62
2024-05-09T10:27:03.822Z,25.74
2024-05-09T10:28:03.774Z,25.09
2024-05-09T10:29:03.760Z,24.52
2024-05-09T10:30:06.920Z,24.47
2024-05-09T10:31:04.781Z,24.75
2024-05-09T10:32:03.700Z,24.97
2024-05-09T10:33:03.746Z,25.47
2024-05-09T10:34:04.198Z,25.68
2024-05-09T10:35:03.831Z,24.88
2024-05-09T10:36:03.686Z,24.37
2024-05-09T10:37:04.940Z,24.39
2024-05-09T10:38:03.628Z,24.59
2024-05-09T10:39:03.586Z,24.23
2024-05-09T10:40:07.214Z,24.52
2024-05-09T10:41:04.563Z,24.80
2024-05-09T10:42:03.551Z,24.73
2024-05-09T10:43:06.285Z,24.45
2024-05-09T10:44:03.521Z,25.09
2024-05-09T10:45:03.514Z,25.28
2024-05-09T10:46:03.518Z,24.97
2024-05-09T10:47:03.503Z,24.22
2024-05-09T10:48:03.608Z,23.55
2024-05-09T10:49:06.291Z,23.75
2024-05-09T10:50:06.085Z,24.22
2024-05-09T10:51:05.419Z,24.39
2024-05-09T10:52:03.443Z,24.50
2024-05-09T10:53:03.419Z,24.59
2024-05-09T10:54:03.463Z,24.82
2024-05-09T10:55:05.638Z,24.44
2024-05-09T10:56:03.375Z,24.85
2024-05-09T10:57:03.385Z,25.53
2024-05-09T10:58:03.466Z,25.90
2024-05-09T10:59:03.341Z,25.77
2024-05-09T11:00:04.927Z,25.56
2024-05-09T11:01:06.608Z,25.06
2024-05-09T11:02:03.412Z,24.80
2024-05-09T11:03:03.343Z,25.28
2024-05-09T11:04:03.606Z,25.16
2024-05-09T11:05:03.387Z,24.90
2024-05-09T11:06:03.261Z,24.67
2024-05-09T11:07:05.274Z,25.07
2024-05-09T11:08:03.200Z,24.97
2024-05-09T11:09:03.215Z,24.98
2024-05-09T11:10:03.462Z,25.27
2024-05-09T11:11:03.328Z,25.22
2024-05-09T11:12:03.271Z,25.75
2024-05-09T11:13:03.225Z,25.69
2024-05-09T11:14:03.123Z,25.84
2024-05-09T11:15:03.134Z,25.86
2024-05-09T11:16:03.280Z,25.84
2024-05-09T11:17:03.158Z,25.57
2024-05-09T11:18:03.198Z,25.42
2024-05-09T11:19:03.231Z,25.54
2024-05-09T11:20:06.237Z,25.24
2024-05-09T11:21:04.060Z,25.05
2024-05-09T11:22:03.068Z,25.25
2024-05-09T11:23:03.022Z,25.38
2024-05-09T11:24:03.023Z,26.27
2024-05-09T11:25:03.216Z,26.42
2024-05-09T11:26:02.971Z,25.84
2024-05-09T11:27:03.027Z,25.83
2024-05-09T11:28:03.009Z,25.47
2024-05-09T11:29:02.959Z,25.75
2024-05-09T11:30:04.196Z,25.38
2024-05-09T11:31:02.949Z,24.98
2024-05-09T11:32:02.952Z,24.82
2024-05-09T11:33:03.019Z,24.76
2024-05-09T11:34:02.936Z,24.54
2024-05-09T11:35:02.835Z,25.01
2024-05-09T11:36:02.874Z,25.34
2024-05-09T11:37:02.868Z,26.20
2024-05-09T11:38:02.802Z,26.54
2024-05-09T11:39:02.823Z,26.37
2024-05-09T11:40:04.344Z,27.06
2024-05-09T11:41:02.759Z,27.70
2024-05-09T11:42:02.733Z,27.06
2024-05-09T11:43:02.780Z,27.16
2024-05-09T11:44:02.723Z,26.73
2024-05-09T11:45:02.745Z,26.12
2024-05-09T11:46:03.669Z,25.27
2024-05-09T11:47:02.675Z,25.42
2024-05-09T11:48:03.026Z,25.34
2024-05-09T11:49:02.894Z,25.19
2024-05-09T11:50:04.275Z,25.28
2024-05-09T11:51:02.654Z,25.32
2024-05-09T11:52:02.720Z,25.16
2024-05-09T11:53:02.672Z,24.98
2024-05-09T11:54:02.584Z,25.34
2024-05-09T11:55:02.772Z,25.28
2024-05-09T11:56:02.732Z,25.00
2024-05-09T11:57:02.589Z,25.25
2024-05-09T11:58:02.584Z,25.44
2024-05-09T11:59:02.512Z,25.44
2024-05-09T12:00:03.205Z,25.47
2024-05-09T12:01:02.885Z,25.22
2024-05-09T12:02:02.660Z,24.88
2024-05-09T12:03:02.510Z,24.87
2024-05-09T12:04:02.777Z,25.12
2024-05-09T12:05:02.542Z,24.98
2024-05-09T12:06:02.612Z,25.20
2024-05-09T12:07:02.492Z,25.67
2024-05-09T12:08:02.659Z,25.67
2024-05-09T12:09:02.414Z,25.87
2024-05-09T12:10:02.391Z,26.31
2024-05-09T12:11:02.481Z,25.82
2024-05-09T12:12:02.359Z,25.31
2024-05-09T12:13:03.732Z,25.09
2024-05-09T12:14:02.306Z,25.10
2024-05-09T12:15:02.370Z,25.20
2024-05-09T12:16:02.392Z,25.67
2024-05-09T12:17:02.307Z,26.37
2024-05-09T12:18:03.919Z,26.98
2024-05-09T12:19:02.377Z,27.51
2024-05-09T12:20:02.514Z,27.11
2024-05-09T12:21:02.249Z,26.50
2024-05-09T12:22:02.327Z,26.54
2024-05-09T12:23:02.227Z,26.67
2024-05-09T12:24:02.186Z,26.91
2024-05-09T12:25:02.276Z,27.19
2024-05-09T12:26:02.166Z,27.82
2024-05-09T12:27:02.176Z,28.19
2024-05-09T12:28:02.226Z,28.09
2024-05-09T12:29:02.115Z,27.80
2024-05-09T12:30:02.511Z,26.59
2024-05-09T12:31:02.191Z,26.24
2024-05-09T12:32:02.134Z,26.08
2024-05-09T12:33:02.128Z,26.11
2024-05-09T12:34:02.192Z,26.18
2024-05-09T12:35:02.041Z,26.43
2024-05-09T12:36:02.047Z,26.61
2024-05-09T12:37:02.043Z,26.74
2024-05-09T12:38:02.059Z,27.04
2024-05-09T12:39:02.014Z,26.64
2024-05-09T12:40:02.832Z,26.11
2024-05-09T12:41:02.128Z,25.87
2024-05-09T12:42:03.273Z,26.29
2024-05-09T12:43:01.959Z,26.94
2024-05-09T12:44:01.902Z,26.68
2024-05-09T12:45:01.953Z,26.69
2024-05-09T12:46:02.057Z,26.81
2024-05-09T12:47:01.871Z,26.58
2024-05-09T12:48:02.028Z,26.36
2024-05-09T12:49:02.124Z,26.32
2024-05-09T12:50:01.884Z,26.27
2024-05-09T12:51:01.885Z,26.22
2024-05-09T12:52:01.953Z,25.84
2024-05-09T12:53:03.048Z,25.47
2024-05-09T12:54:01.794Z,25.57
2024-05-09T12:55:01.950Z,25.82
2024-05-09T12:56:03.609Z,26.32